Time;durP1;ratioP1;P1;durP2;ratioP2;P2;SDS_P1;SDS_P2;PMS_P1;PMS_P2;Temp;Humidity;BMP_temperature;BMP_pressure;BME280_temperature;BME280_humidity;BME280_pressure;Samples;Min_cycle;Max_cycle;Signal;HPM_P1;HPM_P2
2022/10/31 00:02:22;;;;;;;11.77;4.80;;;;;;;12.12;100.00;99121.88;6170469;23;20259;-56
2022/10/31 00:04:50;;;;;;;11.00;3.80;;;;;;;12.13;100.00;99125.31;6166630;23;20204;-57
2022/10/31 00:07:17;;;;;;;8.83;4.17;;;;;;;12.10;100.00;99126.44;6170596;23;20218;-56
2022/10/31 00:09:44;;;;;;;10.37;4.00;;;;;;;12.09;100.00;99130.00;6167075;23;20221;-59
2022/10/31 00:12:10;;;;;;;9.57;4.10;;;;;;;12.02;100.00;99128.97;6170592;23;20243;-58
2022/10/31 00:14:37;;;;;;;14.03;4.77;;;;;;;11.96;100.00;99127.75;6166744;23;20206;-59
2022/10/31 00:17:03;;;;;;;13.23;4.73;;;;;;;12.00;100.00;99128.28;6170331;23;20262;-58
2022/10/31 00:19:30;;;;;;;13.63;4.73;;;;;;;12.03;100.00;99128.81;6169911;23;20290;-58
2022/10/31 00:21:58;;;;;;;8.80;3.97;;;;;;;12.07;100.00;99127.56;6166229;23;20203;-59
2022/10/31 00:24:25;;;;;;;14.80;4.67;;;;;;;12.06;100.00;99125.91;6169271;23;20215;-59
2022/10/31 00:26:51;;;;;;;10.40;4.23;;;;;;;12.17;100.00;99132.72;6167018;23;20277;-59
2022/10/31 00:29:18;;;;;;;14.77;3.97;;;;;;;12.13;100.00;99128.75;6144886;23;20199;-59
2022/10/31 00:31:44;;;;;;;14.57;4.43;;;;;;;12.09;100.00;99136.09;6165256;23;20211;-59
2022/10/31 00:34:11;;;;;;;12.70;4.50;;;;;;;12.02;100.00;99132.41;6169277;23;20202;-60
2022/10/31 00:36:38;;;;;;;7.20;3.70;;;;;;;11.96;100.00;99128.53;6165282;23;20215;-58
2022/10/31 00:39:06;;;;;;;11.87;4.63;;;;;;;12.25;100.00;99121.50;6169113;23;20210;-59
2022/10/31 00:41:32;;;;;;;12.50;4.50;;;;;;;12.07;100.00;99135.41;6170017;23;20215;-57
2022/10/31 00:43:59;;;;;;;15.43;4.30;;;;;;;12.10;100.00;99129.88;6139450;23;20214;-58
2022/10/31 00:46:25;;;;;;;10.87;4.13;;;;;;;12.06;100.00;99125.91;6167237;23;20210;-58
2022/10/31 00:48:52;;;;;;;12.93;5.10;;;;;;;12.03;100.00;99125.38;6163274;23;20666;-58
2022/10/31 00:51:18;;;;;;;13.67;4.53;;;;;;;12.04;100.00;99127.00;6167006;23;20225;-59
2022/10/31 00:53:45;;;;;;;14.17;4.83;;;;;;;11.99;100.00;99122.22;6162784;23;20202;-59
2022/10/31 00:56:13;;;;;;;15.13;4.90;;;;;;;11.97;100.00;99126.75;6142392;23;20199;-58
2022/10/31 00:58:40;;;;;;;21.00;4.57;;;;;;;11.96;100.00;99125.94;6161976;23;21027;-58
2022/10/31 01:01:08;;;;;;;10.30;4.63;;;;;;;11.87;100.00;99112.91;6143009;23;20239;-58
2022/10/31 01:03:35;;;;;;;9.00;4.40;;;;;;;11.78;100.00;99112.00;6162025;23;20199;-59
2022/10/31 01:06:05;;;;;;;13.83;4.20;;;;;;;11.76;100.00;99120.00;6167767;23;20210;-58
2022/10/31 01:08:33;;;;;;;7.40;4.07;;;;;;;11.78;100.00;99120.69;6141606;23;20736;-57
2022/10/31 01:11:02;;;;;;;8.33;3.80;;;;;;;11.77;100.00;99116.41;6132304;23;20211;-59
2022/10/31 01:13:30;;;;;;;11.53;3.80;;;;;;;11.80;100.00;99113.50;6139941;23;20697;-63
2022/10/31 01:15:57;;;;;;;7.20;3.53;;;;;;;11.77;100.00;99118.19;6163226;23;20206;-59
2022/10/31 01:18:26;;;;;;;10.90;4.40;;;;;;;11.80;100.00;99113.50;6168987;23;20263;-58
2022/10/31 01:21:03;;;;;;;11.20;3.77;;;;;;;11.78;100.00;99114.59;6138051;23;20264;-59
2022/10/31 01:23:30;;;;;;;12.03;3.60;;;;;;;11.72;100.00;99117.81;6166662;23;20202;-59
2022/10/31 01:26:06;;;;;;;6.57;3.40;;;;;;;11.71;100.00;99111.78;6164984;23;20264;-58
2022/10/31 01:28:35;;;;;;;7.57;3.10;;;;;;;11.64;100.00;99110.69;6168491;23;20210;-58
2022/10/31 01:31:03;;;;;;;10.63;3.47;;;;;;;11.65;100.00;99117.56;6163357;23;20242;-59
2022/10/31 01:33:29;;;;;;;9.67;3.20;;;;;;;11.70;100.00;99124.97;6141059;23;20200;-60
2022/10/31 01:35:56;;;;;;;9.03;3.27;;;;;;;11.67;100.00;99121.69;6137528;23;21027;-58
2022/10/31 01:38:23;;;;;;;9.27;4.30;;;;;;;11.70;100.00;99114.50;6166560;23;20261;-58
2022/10/31 01:40:50;;;;;;;11.73;3.63;;;;;;;11.63;100.00;99120.34;6162315;23;20207;-59
2022/10/31 01:43:16;;;;;;;9.90;3.50;;;;;;;11.63;100.00;99116.91;6166741;23;20834;-59
2022/10/31 01:45:51;;;;;;;11.07;4.10;;;;;;;11.61;100.00;99124.06;6115735;23;1080226;-59
2022/10/31 01:48:21;;;;;;;12.30;4.30;;;;;;;11.66;100.00;99125.25;6141942;23;20210;-59
2022/10/31 01:50:52;;;;;;;11.03;3.93;;;;;;;11.65;100.00;99126.25;6138198;23;20213;-60
2022/10/31 01:53:19;;;;;;;11.57;3.83;;;;;;;11.59;100.00;99121.63;6168152;23;20217;-58
2022/10/31 01:55:47;;;;;;;21.40;4.87;;;;;;;11.58;100.00;99119.97;6138215;23;20202;-60
2022/10/31 01:58:19;;;;;;;11.97;3.87;;;;;;;11.60;100.00;99117.19;6141622;23;20212;-59
2022/10/31 02:00:52;;;;;;;16.07;4.40;;;;;;;11.71;100.00;99118.78;6161390;23;20213;-59
2022/10/31 02:03:21;;;;;;;10.60;4.60;;;;;;;11.66;100.00;99116.59;6141780;23;20258;-58
2022/10/31 02:05:48;;;;;;;11.70;4.10;;;;;;;11.57;100.00;99107.88;6163888;23;20203;-58
2022/10/31 02:08:19;;;;;;;9.47;3.60;;;;;;;11.52;100.00;99107.47;6167431;23;20683;-59
2022/10/31 02:10:50;;;;;;;14.57;5.03;;;;;;;11.52;100.00;99107.47;6162874;23;20279;-59
2022/10/31 02:13:17;;;;;;;13.33;4.13;;;;;;;11.52;100.00;99108.28;6167404;23;21059;-59
2022/10/31 02:15:52;;;;;;;11.67;4.33;;;;;;;11.57;100.00;99105.25;6164422;23;20578;-58
2022/10/31 02:18:19;;;;;;;14.90;4.53;;;;;;;11.51;100.00;99095.38;6168024;23;20206;-58
2022/10/31 02:20:56;;;;;;;11.10;3.83;;;;;;;11.52;100.00;99097.00;6164346;23;20213;-58
2022/10/31 02:23:58;;;;;;;10.67;3.70;;;;;;;11.57;100.00;99097.41;6141813;23;20533;-59
2022/10/31 02:26:45;;;;;;;8.30;4.00;;;;;;;11.52;100.00;99094.41;6074722;23;20213;-59
2022/10/31 02:29:40;;;;;;;13.57;4.07;;;;;;;11.54;100.00;99089.84;6140104;23;20210;-58
2022/10/31 02:32:15;;;;;;;7.63;3.60;;;;;;;11.55;100.00;99080.19;6141100;23;20268;-58
2022/10/31 02:34:52;;;;;;;12.17;4.00;;;;;;;11.53;100.00;99077.75;6163808;23;20910;-58
2022/10/31 02:37:25;;;;;;;8.53;3.63;;;;;;;11.62;100.00;99082.09;6142259;23;20202;-59
2022/10/31 02:39:59;;;;;;;11.47;3.90;;;;;;;11.59;100.00;99079.78;6139126;23;23536;-58
2022/10/31 02:42:52;;;;;;;6.70;3.73;;;;;;;11.53;100.00;99080.34;6163699;23;20229;-58
2022/10/31 02:45:25;;;;;;;7.30;3.47;;;;;;;11.56;100.00;99079.22;6167628;23;20256;-59
2022/10/31 02:47:55;;;;;;;7.53;3.30;;;;;;;11.64;100.00;99079.31;6162733;23;20203;-56
2022/10/31 02:50:28;;;;;;;13.73;4.60;;;;;;;11.67;100.00;99077.22;6143135;23;20198;-58
2022/10/31 02:52:54;;;;;;;10.33;3.73;;;;;;;11.59;100.00;99071.94;6167225;23;20218;-58
2022/10/31 02:55:50;;;;;;;14.63;5.13;;;;;;;11.59;100.00;99069.31;6143929;23;20725;-58
2022/10/31 02:58:21;;;;;;;11.60;3.23;;;;;;;11.64;100.00;99074.94;6142034;23;20257;-59
2022/10/31 03:01:04;;;;;;;11.32;4.15;;;;;;;11.58;100.00;99077.28;6137866;23;20407;-58
2022/10/31 03:03:38;;;;;;;9.77;3.70;;;;;;;11.56;100.00;99068.78;6168603;23;20218;-59
2022/10/31 03:06:14;;;;;;;8.63;4.13;;;;;;;11.50;100.00;99075.44;6168512;23;20549;-59
2022/10/31 03:08:50;;;;;;;9.83;3.73;;;;;;;11.47;100.00;99078.31;6142158;23;20273;-59
2022/10/31 03:11:19;;;;;;;5.90;3.50;;;;;;;11.48;100.00;99079.97;6171599;23;20210;-58
2022/10/31 03:13:50;;;;;;;7.57;3.23;;;;;;;11.36;100.00;99072.31;6169866;23;20210;-59
2022/10/31 03:16:24;;;;;;;9.67;3.63;;;;;;;11.29;100.00;99078.25;6172564;23;20676;-58
2022/10/31 03:18:57;;;;;;;11.97;4.00;;;;;;;11.31;100.00;99073.72;6145594;23;20640;-58
2022/10/31 03:21:28;;;;;;;8.90;3.90;;;;;;;11.25;100.00;99079.50;6174910;23;20217;-58
2022/10/31 03:23:57;;;;;;;9.40;4.30;;;;;;;11.15;100.00;99069.91;6145345;23;20684;-58
2022/10/31 03:26:25;;;;;;;7.67;3.70;;;;;;;11.09;100.00;99078.34;6175551;23;20311;-58
2022/10/31 03:28:57;;;;;;;11.80;3.63;;;;;;;11.02;100.00;99075.47;6146091;23;20210;-59
2022/10/31 03:31:29;;;;;;;11.27;3.97;;;;;;;10.93;100.00;99074.56;6176103;23;20206;-57
2022/10/31 03:34:02;;;;;;;6.90;4.00;;;;;;;10.87;100.00;99082.09;6172461;23;20621;-58
2022/10/31 03:36:31;;;;;;;10.47;3.23;;;;;;;10.77;100.00;99071.69;6176353;23;20210;-59
2022/10/31 03:39:02;;;;;;;9.17;3.30;;;;;;;10.71;100.00;99075.69;6146038;23;20206;-58
2022/10/31 03:41:32;;;;;;;5.93;3.30;;;;;;;10.63;100.00;99065.94;6176171;23;20592;-58
2022/10/31 03:44:04;;;;;;;10.93;4.20;;;;;;;10.61;100.00;99067.03;6145703;23;20202;-58
2022/10/31 03:46:32;;;;;;;7.67;4.10;;;;;;;10.56;100.00;99056.22;6149330;23;20198;-58
2022/10/31 03:49:01;;;;;;;12.30;3.60;;;;;;;10.55;100.00;99060.59;6170928;23;20202;-58
2022/10/31 03:51:35;;;;;;;10.30;3.83;;;;;;;10.48;100.00;99067.34;6149872;23;20205;-57
2022/10/31 03:54:08;;;;;;;10.80;4.23;;;;;;;10.46;100.00;99061.44;6146046;23;20208;-59
2022/10/31 03:56:37;;;;;;;8.93;3.80;;;;;;;10.51;100.00;99058.44;6171861;23;20205;-59
2022/10/31 03:59:09;;;;;;;12.03;4.00;;;;;;;10.58;100.00;99056.91;6148251;23;20213;-58
2022/10/31 04:04:20;;;;;;;8.67;3.70;;;;;;;10.54;100.00;99053.75;6150681;23;20852;-59
2022/10/31 04:06:51;;;;;;;9.10;4.13;;;;;;;10.61;100.00;99052.22;6142599;23;20209;-58
2022/10/31 04:09:20;;;;;;;7.80;3.53;;;;;;;10.59;100.00;99056.75;6175497;23;20206;-58
2022/10/31 04:11:49;;;;;;;10.60;4.37;;;;;;;10.57;100.00;99061.28;6146096;23;20206;-58
2022/10/31 04:14:39;;;;;;;9.40;3.37;;;;;;;10.54;100.00;99058.97;6150939;23;20201;-59
2022/10/31 04:17:10;;;;;;;9.00;3.83;;;;;;;10.50;100.00;99051.56;6174636;23;20202;-59
2022/10/31 04:19:41;;;;;;;9.00;3.83;;;;;;;10.54;100.00;99056.34;6146007;23;20228;-58
2022/10/31 04:22:08;;;;;;;11.50;3.57;;;;;;;10.48;100.00;99059.50;6174509;23;20273;-59
2022/10/31 04:24:34;;;;;;;8.97;3.40;;;;;;;10.51;100.00;99056.63;6170226;23;20205;-60
2022/10/31 04:27:01;;;;;;;9.40;3.50;;;;;;;10.55;100.00;99057.19;6174561;23;20259;-58
2022/10/31 04:29:29;;;;;;;8.17;3.87;;;;;;;10.47;100.00;99055.25;6174108;23;20200;-59
2022/10/31 04:31:56;;;;;;;10.73;3.53;;;;;;;10.47;100.00;99053.50;6157994;23;20219;-61
2022/10/31 04:34:22;;;;;;;9.60;3.67;;;;;;;10.48;100.00;99055.13;6178110;23;20263;-61
2022/10/31 04:36:51;;;;;;;13.97;4.33;;;;;;;10.44;100.00;99056.38;6175988;23;20211;-61
2022/10/31 04:39:18;;;;;;;13.93;4.30;;;;;;;10.37;100.00;99057.03;6205965;23;20201;-60
2022/10/31 04:41:50;;;;;;;12.13;3.87;;;;;;;10.27;100.00;99052.63;6175152;23;20675;-60
2022/10/31 04:44:18;;;;;;;7.97;3.33;;;;;;;10.23;100.00;99056.47;6177954;23;20200;-61
2022/10/31 04:46:49;;;;;;;8.77;3.83;;;;;;;10.11;100.00;99050.59;6175664;23;20202;-61
2022/10/31 04:49:16;;;;;;;14.70;4.23;;;;;;;10.10;100.00;99058.53;6179249;23;20602;-61
2022/10/31 04:51:43;;;;;;;13.57;4.43;;;;;;;10.12;100.00;99056.63;6175429;23;20212;-60
2022/10/31 04:54:11;;;;;;;9.47;3.97;;;;;;;10.06;100.00;99050.19;6178830;23;20201;-60
2022/10/31 04:56:56;;;;;;;9.83;3.90;;;;;;;10.00;100.00;99048.13;6202566;23;20219;-61
2022/10/31 04:59:23;;;;;;;11.00;4.03;;;;;;;10.05;100.00;99048.53;6179109;23;20205;-60
2022/10/31 05:01:53;;;;;;;10.43;3.17;;;;;;;10.03;100.00;99045.22;6175500;23;20277;-61
2022/10/31 05:04:39;;;;;;;11.60;3.63;;;;;;;10.00;100.00;99041.13;6175479;23;20203;-60
2022/10/31 05:07:05;;;;;;;8.53;4.03;;;;;;;9.93;100.00;99053.06;6179285;23;20200;-61
2022/10/31 05:09:33;;;;;;;7.97;3.83;;;;;;;9.90;100.00;99048.13;6204133;23;20203;-61
2022/10/31 05:12:00;;;;;;;10.63;4.23;;;;;;;9.90;100.00;99050.72;6198500;23;20219;-60
2022/10/31 05:15:06;;;;;;;9.37;4.07;;;;;;;9.89;100.00;99049.88;6052558;23;20241;-61
2022/10/31 05:18:11;;;;;;;11.00;3.70;;;;;;;9.85;100.00;99053.72;5995909;23;20209;-61
2022/10/31 05:21:00;;;;;;;8.23;3.47;;;;;;;9.79;100.00;99053.47;6070747;23;20223;-60
2022/10/31 05:23:42;;;;;;;11.77;4.37;;;;;;;9.80;100.00;99055.91;6168193;23;20215;-61
2022/10/31 05:26:11;;;;;;;14.20;4.83;;;;;;;9.80;100.00;99052.50;6179220;23;20208;-60
2022/10/31 05:28:38;;;;;;;12.50;4.20;;;;;;;9.81;100.00;99049.75;6175640;23;20198;-60
2022/10/31 05:31:05;;;;;;;10.17;3.57;;;;;;;9.78;100.00;99046.59;6178683;23;20211;-60
2022/10/31 05:33:32;;;;;;;9.37;4.30;;;;;;;9.76;100.00;99044.09;6178324;23;20295;-61
2022/10/31 05:36:28;;;;;;;6.70;3.47;;;;;;;9.72;100.00;99040.13;6095401;23;20324;-60
2022/10/31 05:38:58;;;;;;;6.67;3.50;;;;;;;9.76;100.00;99031.06;6175400;23;20204;-61
2022/10/31 05:41:30;;;;;;;9.57;3.30;;;;;;;9.70;100.00;99024.63;6178989;23;20228;-60
2022/10/31 05:44:13;;;;;;;10.93;3.80;;;;;;;9.74;100.00;99027.78;6175679;23;20211;-59
2022/10/31 05:46:52;;;;;;;9.90;4.27;;;;;;;9.81;100.00;99023.66;6174709;23;20227;-61
2022/10/31 05:49:38;;;;;;;9.77;4.13;;;;;;;9.82;100.00;99019.28;6201552;23;20254;-61
2022/10/31 05:52:23;;;;;;;15.70;4.50;;;;;;;9.82;100.00;99020.09;6205332;23;20218;-60
2022/10/31 05:54:56;;;;;;;7.30;3.63;;;;;;;9.95;100.00;99021.63;6175326;23;20239;-61
2022/10/31 05:57:24;;;;;;;8.27;3.50;;;;;;;9.90;100.00;99020.25;6179013;23;20207;-60
2022/10/31 05:59:53;;;;;;;9.87;3.50;;;;;;;9.93;100.00;99026.16;6175551;23;20277;-61
2022/10/31 06:02:20;;;;;;;11.97;4.00;;;;;;;10.02;100.00;99027.94;6178629;23;20210;-60
2022/10/31 06:05:06;;;;;;;9.20;3.67;;;;;;;10.02;100.00;99020.94;6202398;23;20550;-61
2022/10/31 06:07:33;;;;;;;12.33;3.83;;;;;;;10.03;100.00;99024.38;6178988;23;20201;-60
2022/10/31 06:10:00;;;;;;;12.77;4.37;;;;;;;10.05;100.00;99030.28;6175856;23;20634;-61
2022/10/31 06:12:28;;;;;;;7.37;4.63;;;;;;;10.10;100.00;99027.22;6178340;23;20511;-61
2022/10/31 06:15:16;;;;;;;13.50;3.90;;;;;;;10.14;100.00;99026.84;6175544;23;20215;-61
2022/10/31 06:17:43;;;;;;;12.47;3.80;;;;;;;10.19;100.00;99029.84;6175359;23;20200;-61
2022/10/31 06:20:31;;;;;;;8.67;3.47;;;;;;;10.22;100.00;99030.53;6204623;23;20208;-61
2022/10/31 06:23:06;;;;;;;11.20;4.07;;;;;;;10.24;100.00;99028.63;6176502;23;20204;-61
2022/10/31 06:25:34;;;;;;;10.87;4.00;;;;;;;10.29;100.00;99036.84;6180194;23;20234;-61
2022/10/31 06:28:02;;;;;;;9.23;3.70;;;;;;;10.34;100.00;99034.66;6171247;23;20705;-62
2022/10/31 06:30:38;;;;;;;9.10;3.93;;;;;;;10.43;100.00;99036.47;6176966;23;20547;-60
2022/10/31 06:33:06;;;;;;;9.43;3.93;;;;;;;10.47;100.00;99040.44;6180056;23;20210;-61
2022/10/31 06:35:35;;;;;;;13.57;5.70;;;;;;;10.54;100.00;99040.69;6176866;23;20204;-61
2022/10/31 06:38:02;;;;;;;7.70;3.70;;;;;;;10.57;100.00;99037.78;6180452;23;20213;-61
2022/10/31 06:40:42;;;;;;;11.23;3.90;;;;;;;10.63;100.00;99029.41;6176813;23;20233;-60
2022/10/31 06:43:22;;;;;;;10.27;3.50;;;;;;;10.68;100.00;99031.56;6180330;23;20506;-60
2022/10/31 06:45:52;;;;;;;8.07;3.60;;;;;;;10.73;100.00;99033.78;6176900;23;20210;-61
2022/10/31 06:48:28;;;;;;;9.57;3.23;;;;;;;10.80;100.00;99029.63;6180309;23;20280;-61
2022/10/31 06:51:14;;;;;;;6.53;3.60;;;;;;;10.85;100.00;99030.03;6177680;23;20271;-61
2022/10/31 06:53:42;;;;;;;9.77;3.80;;;;;;;10.90;100.00;99037.44;6176855;23;20211;-62
2022/10/31 06:56:11;;;;;;;8.03;3.80;;;;;;;10.96;100.00;99029.03;6180399;23;20212;-62
2022/10/31 06:58:44;;;;;;;9.00;4.27;;;;;;;11.00;100.00;99027.78;6176817;23;20212;-62
2022/10/31 07:01:11;;;;;;;7.13;3.50;;;;;;;11.06;100.00;99032.41;6180079;23;20209;-61
2022/10/31 07:03:39;;;;;;;11.60;3.17;;;;;;;11.16;100.00;99031.56;6176459;23;20255;-61
2022/10/31 07:06:06;;;;;;;8.93;3.37;;;;;;;11.22;100.00;99026.56;6206459;23;20213;-61
2022/10/31 07:08:34;;;;;;;7.33;3.23;;;;;;;11.31;100.00;99026.66;6180326;23;20242;-61
2022/10/31 07:11:00;;;;;;;7.57;2.93;;;;;;;11.41;100.00;99026.63;6200955;23;20600;-61
2022/10/31 07:13:29;;;;;;;7.90;3.10;;;;;;;11.47;100.00;99033.88;6180090;23;20210;-61
2022/10/31 07:16:10;;;;;;;6.37;3.00;;;;;;;11.54;100.00;99042.78;6177729;23;20222;-61
2022/10/31 07:18:37;;;;;;;7.37;3.30;;;;;;;11.61;100.00;99035.16;6176342;23;20229;-61
2022/10/31 07:21:04;;;;;;;8.90;3.40;;;;;;;11.66;100.00;99038.16;6180001;23;20293;-61
2022/10/31 07:23:33;;;;;;;6.23;3.63;;;;;;;11.78;100.00;99044.81;6180097;23;20216;-61
2022/10/31 07:26:35;;;;;;;5.30;3.20;;;;;;;11.88;100.00;99042.13;6200025;23;20351;-61
2022/10/31 07:29:02;;;;;;;9.00;3.60;;;;;;;11.96;100.00;99046.63;6180377;23;20209;-61
2022/10/31 07:31:30;;;;;;;12.20;2.87;;;;;;;12.03;100.00;99052.94;6179497;23;20217;-61
2022/10/31 07:34:03;;;;;;;10.97;3.40;;;;;;;12.13;100.00;99062.53;6201338;23;20663;-61
2022/10/31 07:36:55;;;;;;;10.33;2.83;;;;;;;12.23;100.00;99063.22;6202808;23;20715;-62
2022/10/31 07:39:22;;;;;;;7.13;3.27;;;;;;;12.30;100.00;99063.47;6180023;23;20221;-62
2022/10/31 07:41:49;;;;;;;6.40;3.07;;;;;;;12.37;100.00;99069.75;6202653;23;20207;-62
2022/10/31 07:44:19;;;;;;;9.33;3.20;;;;;;;12.45;100.00;99056.72;6179318;23;20203;-62
2022/10/31 07:47:02;;;;;;;12.07;3.47;;;;;;;12.53;100.00;99063.81;6203341;23;20217;-62
2022/10/31 07:49:47;;;;;;;5.57;3.00;;;;;;;12.64;100.00;99065.38;6203225;23;20218;-61
2022/10/31 07:52:32;;;;;;;9.37;3.37;;;;;;;12.73;100.00;99064.41;6206882;23;20217;-61
2022/10/31 07:55:17;;;;;;;5.70;3.20;;;;;;;12.83;100.00;99065.13;6203863;23;20213;-61
2022/10/31 07:57:55;;;;;;;7.97;3.60;;;;;;;12.90;100.00;99059.28;6203135;23;20208;-61
2022/10/31 08:00:22;;;;;;;8.98;3.88;;;;;;;12.93;100.00;99058.97;6179575;23;20412;-62
2022/10/31 08:02:58;;;;;;;10.20;3.77;;;;;;;12.96;100.00;99064.75;6176261;23;20206;-60
2022/10/31 08:05:45;;;;;;;6.87;2.97;;;;;;;13.07;100.00;99060.22;6203331;23;20212;-61
2022/10/31 08:08:28;;;;;;;12.17;3.47;;;;;;;13.20;100.00;99059.78;6206877;23;20540;-61
2022/10/31 08:10:55;;;;;;;7.07;3.27;;;;;;;13.27;100.00;99058.97;6176524;23;21398;-61
2022/10/31 08:13:22;;;;;;;5.77;2.70;;;;;;;13.39;100.00;99054.28;6179479;23;20234;-61
2022/10/31 08:15:51;;;;;;;9.57;2.83;;;;;;;13.54;100.00;99066.81;6176196;23;20201;-61
2022/10/31 08:18:24;;;;;;;5.63;2.60;;;;;;;13.70;100.00;99066.03;6179911;23;20695;-61
2022/10/31 08:20:52;;;;;;;7.77;3.30;;;;;;;13.84;99.91;99068.03;6175979;23;20208;-61
2022/10/31 08:23:18;;;;;;;7.20;2.93;;;;;;;13.94;98.00;99065.25;6179225;23;20203;-61
2022/10/31 08:25:47;;;;;;;12.13;4.87;;;;;;;13.99;97.33;99070.03;6202289;23;20202;-61
2022/10/31 08:28:15;;;;;;;7.20;4.40;;;;;;;14.08;96.43;99065.59;6179206;23;20207;-62
2022/10/31 08:30:45;;;;;;;8.17;4.73;;;;;;;14.17;97.05;99067.25;6175481;23;20291;-62
2022/10/31 08:33:32;;;;;;;10.40;5.93;;;;;;;14.23;92.00;99077.09;6205138;23;20210;-62
2022/10/31 08:36:28;;;;;;;13.03;5.60;;;;;;;14.14;92.49;99078.09;6095752;23;20559;-62
2022/10/31 08:39:18;;;;;;;15.50;5.10;;;;;;;14.15;92.68;99079.72;6190276;23;20211;-62
2022/10/31 08:41:45;;;;;;;11.23;5.17;;;;;;;14.16;91.96;99071.69;6174469;23;20236;-62
2022/10/31 08:44:13;;;;;;;15.03;5.30;;;;;;;14.02;91.55;99070.53;6178903;23;20207;-62
2022/10/31 08:46:40;;;;;;;11.90;5.30;;;;;;;14.13;90.98;99072.03;6201918;23;20242;-61
2022/10/31 08:49:08;;;;;;;10.40;5.70;;;;;;;14.08;90.97;99073.47;6179183;23;20208;-61
2022/10/31 08:51:35;;;;;;;10.87;5.20;;;;;;;14.05;91.95;99069.38;6178513;23;20214;-61
2022/10/31 08:54:01;;;;;;;14.10;6.03;;;;;;;13.86;93.47;99066.06;6175361;23;20203;-61
2022/10/31 08:56:47;;;;;;;17.10;5.70;;;;;;;14.01;93.40;99070.69;6202055;23;20212;-61
2022/10/31 08:59:29;;;;;;;10.83;5.67;;;;;;;14.08;92.02;99068.22;6179456;23;20642;-65
2022/10/31 09:02:17;;;;;;;14.17;5.43;;;;;;;14.10;91.22;99064.47;6202565;23;20218;-61
2022/10/31 09:04:46;;;;;;;10.33;5.80;;;;;;;14.11;91.20;99058.25;6175315;23;20209;-61
2022/10/31 09:07:13;;;;;;;12.97;5.90;;;;;;;14.21;91.96;99058.06;6206044;23;20657;-61
2022/10/31 09:09:39;;;;;;;12.43;5.87;;;;;;;14.36;91.18;99055.59;6175873;23;20567;-61
2022/10/31 09:12:06;;;;;;;11.27;5.37;;;;;;;14.44;91.28;99049.53;6178885;23;20210;-62
2022/10/31 09:14:51;;;;;;;11.30;5.60;;;;;;;14.56;90.34;99050.84;6201990;23;20238;-62
2022/10/31 09:17:29;;;;;;;14.70;6.07;;;;;;;14.68;89.05;99042.63;6205932;23;20253;-61
2022/10/31 09:20:18;;;;;;;10.47;5.80;;;;;;;14.70;89.66;99051.19;6186175;23;20207;-61
2022/10/31 09:22:44;;;;;;;10.50;5.17;;;;;;;14.78;89.85;99045.06;6201812;23;20239;-61
2022/10/31 09:25:11;;;;;;;12.60;5.80;;;;;;;14.82;88.62;99044.59;6178906;23;20257;-61
2022/10/31 09:27:39;;;;;;;10.27;5.33;;;;;;;14.93;88.61;99046.03;6175256;23;20211;-61
2022/10/31 09:30:07;;;;;;;11.47;5.20;;;;;;;14.98;87.61;99037.63;6179135;23;20541;-61
2022/10/31 09:32:34;;;;;;;9.47;4.90;;;;;;;14.99;87.28;99034.84;6178914;23;20221;-61
2022/10/31 09:35:01;;;;;;;13.07;6.37;;;;;;;15.02;87.13;99038.94;6175646;23;20204;-61
2022/10/31 09:37:29;;;;;;;13.67;6.07;;;;;;;15.15;87.47;99035.78;6204073;23;20208;-61
2022/10/31 09:39:56;;;;;;;15.40;6.23;;;;;;;15.18;86.78;99032.81;6174179;23;20214;-62
2022/10/31 09:42:52;;;;;;;18.53;6.63;;;;;;;15.15;89.33;99027.88;6178459;23;20548;-62
2022/10/31 09:45:30;;;;;;;22.07;6.30;;;;;;;15.18;87.83;99020.47;6201041;23;20231;-62
2022/10/31 09:48:13;;;;;;;8.70;5.53;;;;;;;15.29;86.40;99024.53;6175523;23;20647;-62
2022/10/31 09:51:03;;;;;;;16.50;6.13;;;;;;;15.32;87.31;99028.63;6201061;23;20211;-61
2022/10/31 09:53:43;;;;;;;13.37;6.77;;;;;;;15.26;85.79;99019.63;6201438;23;20199;-61
2022/10/31 09:56:14;;;;;;;14.67;7.23;;;;;;;15.12;85.08;99021.16;6178876;23;20207;-61
2022/10/31 09:58:44;;;;;;;13.43;7.50;;;;;;;15.02;85.63;99024.00;6175423;23;20341;-61
2022/10/31 10:01:29;;;;;;;17.20;7.83;;;;;;;15.05;87.00;99018.38;6201081;23;20208;-61
2022/10/31 10:04:00;;;;;;;13.43;7.03;;;;;;;15.04;88.07;99016.75;6197260;23;20215;-62
2022/10/31 10:06:50;;;;;;;21.90;6.73;;;;;;;15.22;87.42;99007.81;6201700;23;20215;-62
2022/10/31 10:09:56;;;;;;;15.60;7.13;;;;;;;15.39;87.49;99013.78;6201474;23;20227;-62
2022/10/31 10:13:14;;;;;;;14.53;7.07;;;;;;;15.46;86.46;99006.03;6175259;23;20581;-63
2022/10/31 10:15:56;;;;;;;13.07;7.20;;;;;;;15.56;86.52;99008.44;6198429;23;20196;-62
2022/10/31 10:18:41;;;;;;;13.77;6.90;;;;;;;15.77;87.27;99007.81;6204819;23;20199;-62
2022/10/31 10:21:23;;;;;;;15.27;7.30;;;;;;;15.95;86.80;99010.16;6201588;23;20216;-62
2022/10/31 10:24:10;;;;;;;15.13;7.50;;;;;;;16.10;83.31;99007.59;6200262;23;20206;-62
2022/10/31 10:26:42;;;;;;;14.97;6.53;;;;;;;16.03;82.51;99011.94;6201551;23;20213;-62
2022/10/31 10:29:30;;;;;;;15.77;6.20;;;;;;;15.84;82.88;99002.69;6205145;23;20211;-62
2022/10/31 10:32:01;;;;;;;10.47;6.07;;;;;;;15.98;83.96;98999.28;6173946;23;20259;-62
2022/10/31 10:34:34;;;;;;;17.07;7.10;;;;;;;16.05;83.54;99008.13;6177986;23;20271;-62
2022/10/31 10:37:04;;;;;;;15.03;6.37;;;;;;;15.98;83.77;99003.75;6198145;23;20208;-61
2022/10/31 10:39:37;;;;;;;11.43;6.63;;;;;;;16.00;83.60;99002.56;6205350;23;20685;-61
2022/10/31 10:47:44;;;;;;;13.47;6.47;;;;;;;15.96;83.71;99000.47;6201761;23;20892;-62
2022/10/31 10:50:16;;;;;;;21.40;7.17;;;;;;;15.94;83.41;99000.63;6204856;23;20202;-62
2022/10/31 10:53:07;;;;;;;11.73;6.83;;;;;;;15.95;85.70;99002.28;6200787;23;20257;-62
2022/10/31 10:55:41;;;;;;;14.40;7.00;;;;;;;15.99;84.54;98995.66;6205090;23;20361;-62
2022/10/31 10:58:11;;;;;;;16.87;7.80;;;;;;;15.92;83.65;98992.09;6201740;23;20204;-62
2022/10/31 11:00:41;;;;;;;17.53;7.73;;;;;;;16.18;81.94;98985.63;6201541;23;20256;-62
2022/10/31 11:03:08;;;;;;;14.83;7.13;;;;;;;16.11;83.04;98979.44;6204404;23;20204;-62
2022/10/31 11:05:38;;;;;;;14.90;7.57;;;;;;;16.15;83.60;98971.03;6204626;23;20212;-62
2022/10/31 11:08:06;;;;;;;15.87;7.67;;;;;;;16.20;85.46;98971.31;6202015;23;20620;-62
2022/10/31 11:10:33;;;;;;;15.67;8.33;;;;;;;16.38;85.49;98970.16;6207204;23;20215;-62
2022/10/31 11:13:23;;;;;;;17.67;7.47;;;;;;;16.62;83.63;98965.59;6202700;23;20208;-62
2022/10/31 11:15:59;;;;;;;14.27;7.70;;;;;;;16.68;83.07;98978.06;6203583;23;20203;-62
2022/10/31 11:18:28;;;;;;;15.90;8.53;;;;;;;16.61;82.92;98985.06;6207047;23;20200;-62
2022/10/31 11:20:57;;;;;;;19.37;8.67;;;;;;;16.55;81.11;98983.97;6203322;23;20205;-62
2022/10/31 11:23:25;;;;;;;14.87;8.30;;;;;;;16.41;83.50;98987.41;6204965;23;20524;-61
2022/10/31 11:25:58;;;;;;;15.30;8.47;;;;;;;16.30;83.20;98994.75;6203180;23;20670;-62
2022/10/31 11:28:29;;;;;;;16.87;8.23;;;;;;;16.45;82.43;98980.78;6179941;23;20259;-62
2022/10/31 11:30:58;;;;;;;15.13;8.07;;;;;;;16.06;83.88;98970.25;6202393;23;23347;-62
2022/10/31 11:33:33;;;;;;;17.83;9.03;;;;;;;16.30;83.95;98957.06;6178554;23;20213;-62
2022/10/31 11:36:04;;;;;;;19.63;8.80;;;;;;;16.30;82.18;98951.78;6203479;23;20207;-62
2022/10/31 11:38:35;;;;;;;15.73;8.27;;;;;;;16.27;83.95;98945.06;6207031;23;20255;-62
2022/10/31 11:41:10;;;;;;;14.53;8.80;;;;;;;16.28;85.04;98957.22;6203045;23;20697;-62
2022/10/31 11:43:39;;;;;;;15.40;8.20;;;;;;;16.13;84.91;98965.13;6203048;23;20667;-63
2022/10/31 11:46:11;;;;;;;12.40;8.00;;;;;;;16.22;84.74;98957.94;6206406;23;20557;-62
2022/10/31 11:48:39;;;;;;;18.23;8.43;;;;;;;16.32;84.06;98952.44;6202998;23;20258;-62
2022/10/31 11:51:05;;;;;;;13.23;8.27;;;;;;;16.41;83.32;98942.63;6179933;23;20201;-62
2022/10/31 11:53:35;;;;;;;20.20;8.10;;;;;;;16.36;82.93;98943.16;6205881;23;20204;-63
2022/10/31 11:56:11;;;;;;;19.57;9.03;;;;;;;16.35;82.02;98928.38;6203448;23;20558;-63
2022/10/31 11:58:39;;;;;;;18.43;7.77;;;;;;;16.47;82.34;98936.63;6202767;23;20235;-62
2022/10/31 12:01:06;;;;;;;14.77;7.83;;;;;;;16.33;81.54;98935.63;6206506;23;20244;-62